Time;durP1;ratioP1;P1;durP2;ratioP2;P2;SDS_P1;SDS_P2;PMS_P1;PMS_P2;Temp;Humidity;BMP_temperature;BMP_pressure;BME280_temperature;BME280_humidity;BME280_pressure;Samples;Min_cycle;Max_cycle;Signal;HPM_P1;HPM_P2
2022/10/08 00:01:48;;;;;;;8.80;2.20;;;;;;;13.83;100.00;101550.63;5285643;28;20032;-72
2022/10/08 00:04:20;;;;;;;9.07;2.83;;;;;;;13.80;100.00;101543.81;5289807;28;20024;-72
2022/10/08 00:06:52;;;;;;;10.00;2.38;;;;;;;13.82;100.00;101541.88;5287123;28;20070;-72
2022/10/08 00:09:23;;;;;;;11.63;3.38;;;;;;;13.77;100.00;101535.34;5292746;28;20500;-72
2022/10/08 00:11:56;;;;;;;12.27;3.67;;;;;;;13.81;100.00;101534.94;5290256;28;20477;-72
2022/10/08 00:14:27;;;;;;;;;;;;;;;14.35;100.00;101536.28;5288097;28;20140;-72
2022/10/08 00:16:59;;;;;;;12.53;3.33;;;;;;;13.88;100.00;101538.72;5291717;28;20010;-71
2022/10/08 00:19:30;;;;;;;9.43;2.58;;;;;;;13.83;100.00;101546.19;5288320;28;20382;-71
2022/10/08 00:22:04;;;;;;;10.07;2.63;;;;;;;13.92;100.00;101546.34;5290446;28;20522;-71
2022/10/08 00:24:37;;;;;;;8.50;2.80;;;;;;;13.85;100.00;101543.41;5291127;28;20081;-71
2022/10/08 00:27:11;;;;;;;8.02;2.70;;;;;;;13.88;100.00;101551.88;5291152;28;20024;-71
2022/10/08 00:29:44;;;;;;;10.30;3.10;;;;;;;13.88;100.00;101546.63;5288339;28;20134;-71
2022/10/08 00:32:18;;;;;;;12.48;3.80;;;;;;;13.96;100.00;101545.13;5287358;28;20054;-71
2022/10/08 00:34:50;;;;;;;10.48;2.55;;;;;;;13.95;100.00;101548.72;5289544;28;20024;-71
2022/10/08 00:37:22;;;;;;;9.63;2.67;;;;;;;13.89;100.00;101536.91;5291938;28;20047;-71
2022/10/08 00:39:53;;;;;;;11.32;3.08;;;;;;;13.98;100.00;101545.78;5288331;28;20052;-71
2022/10/08 00:42:24;;;;;;;9.77;2.42;;;;;;;13.99;100.00;101536.94;5290207;28;20520;-71
2022/10/08 00:44:59;;;;;;;8.93;2.42;;;;;;;14.00;100.00;101542.06;5288146;28;20495;-71
2022/10/08 00:47:33;;;;;;;10.85;2.97;;;;;;;14.06;100.00;101543.34;5283156;28;20027;-71
2022/10/08 00:50:16;;;;;;;7.55;2.75;;;;;;;14.08;100.00;101546.66;5286641;28;20455;-71
2022/10/08 00:52:52;;;;;;;9.95;2.38;;;;;;;14.06;100.00;101551.25;5293116;28;20025;-71
2022/10/08 00:55:26;;;;;;;14.52;2.97;;;;;;;14.08;100.00;101554.56;5288832;28;20039;-71
2022/10/08 00:58:04;;;;;;;11.52;2.78;;;;;;;14.11;100.00;101549.84;5286618;28;20059;-71
2022/10/08 01:00:35;;;;;;;12.95;2.33;;;;;;;14.07;100.00;101555.53;5287299;28;20035;-70
2022/10/08 01:03:07;;;;;;;13.88;3.30;;;;;;;14.08;100.00;101554.56;5287752;28;20469;-70
2022/10/08 01:05:50;;;;;;;8.68;2.65;;;;;;;14.25;100.00;101561.00;5287967;28;20427;-70
2022/10/08 01:08:47;;;;;;;8.88;2.40;;;;;;;14.27;100.00;101569.56;5284321;28;20024;-70
2022/10/08 01:11:40;;;;;;;8.25;2.30;;;;;;;14.19;100.00;101572.91;5285068;28;20032;-70
2022/10/08 01:14:38;;;;;;;11.73;3.00;;;;;;;14.24;100.00;101578.59;5291813;28;20427;-70
2022/10/08 01:17:47;;;;;;;11.45;3.25;;;;;;;14.45;100.00;101583.75;5287233;28;20114;-70
2022/10/08 01:20:30;;;;;;;10.02;2.33;;;;;;;14.19;100.00;101577.34;5227965;28;20122;-70
2022/10/08 01:23:35;;;;;;;11.93;2.58;;;;;;;14.25;100.00;101571.53;5286035;28;20039;-70
2022/10/08 01:26:24;;;;;;;7.43;2.45;;;;;;;13.96;100.00;101571.47;5290108;28;20024;-71
2022/10/08 01:29:14;;;;;;;6.50;2.45;;;;;;;14.14;100.00;101569.03;5288090;28;20040;-70
2022/10/08 01:31:51;;;;;;;11.90;2.92;;;;;;;14.00;100.00;101575.50;5287207;28;20039;-70
2022/10/08 01:34:30;;;;;;;12.48;3.08;;;;;;;13.97;100.00;101578.38;5291615;28;20023;-70
2022/10/08 01:37:04;;;;;;;8.60;2.40;;;;;;;13.80;100.00;101569.34;5287228;28;20043;-70
2022/10/08 01:39:38;;;;;;;8.18;2.55;;;;;;;13.80;100.00;101570.16;5283775;28;20032;-70
2022/10/08 01:42:10;;;;;;;7.82;2.35;;;;;;;13.72;100.00;101577.91;5284601;28;20043;-70
2022/10/08 01:44:46;;;;;;;7.95;2.50;;;;;;;13.79;100.00;101571.13;5288911;28;20127;-70
2022/10/08 01:47:22;;;;;;;9.63;2.88;;;;;;;13.76;100.00;101573.19;5282647;28;20522;-70
2022/10/08 01:50:01;;;;;;;10.93;2.40;;;;;;;13.80;100.00;101572.78;5287021;28;20121;-69
2022/10/08 01:52:42;;;;;;;8.02;2.25;;;;;;;13.71;100.00;101572.75;5289793;28;20058;-70
2022/10/08 01:55:20;;;;;;;6.32;2.20;;;;;;;13.77;100.00;101580.97;5283562;28;20047;-70
2022/10/08 01:57:56;;;;;;;7.85;2.30;;;;;;;13.66;100.00;101588.13;5290649;28;20061;-70
2022/10/08 02:00:31;;;;;;;9.05;2.42;;;;;;;13.62;100.00;101593.63;5287040;28;20120;-70
2022/10/08 02:03:02;;;;;;;8.10;2.40;;;;;;;13.60;100.00;101592.97;5268129;28;20066;-70
2022/10/08 02:05:37;;;;;;;10.38;2.78;;;;;;;13.64;100.00;101588.25;5286993;28;20062;-70
2022/10/08 02:08:09;;;;;;;11.02;2.50;;;;;;;13.52;100.00;101591.91;5291657;28;20115;-70
2022/10/08 02:10:42;;;;;;;9.02;2.70;;;;;;;13.50;100.00;101588.59;5286931;28;20119;-69
2022/10/08 02:13:13;;;;;;;7.45;2.38;;;;;;;13.50;100.00;101580.72;5283755;28;20028;-70
2022/10/08 02:16:26;;;;;;;7.85;2.47;;;;;;;13.86;100.00;101589.84;5274437;28;20575;-70
2022/10/08 02:19:12;;;;;;;7.68;1.90;;;;;;;13.63;100.00;101584.78;5179596;28;20101;-69
2022/10/08 02:21:44;;;;;;;7.80;1.85;;;;;;;13.50;100.00;101585.97;5281559;28;20036;-70
2022/10/08 02:24:18;;;;;;;6.57;2.00;;;;;;;13.42;100.00;101588.44;5282809;28;20028;-69
2022/10/08 02:26:53;;;;;;;7.22;1.77;;;;;;;13.47;100.00;101586.22;5287319;28;20036;-69
2022/10/08 02:29:32;;;;;;;5.22;1.70;;;;;;;13.46;100.00;101582.75;5288809;28;20035;-70
2022/10/08 02:32:11;;;;;;;7.00;1.77;;;;;;;13.43;100.00;101597.97;5280817;28;20032;-70
2022/10/08 02:34:49;;;;;;;7.22;1.50;;;;;;;13.38;100.00;101595.75;5284239;28;20089;-72
2022/10/08 02:37:26;;;;;;;6.35;1.98;;;;;;;13.33;100.00;101596.16;5282543;28;20063;-72
2022/10/08 02:40:01;;;;;;;8.73;1.73;;;;;;;13.29;100.00;101605.22;5286338;28;20032;-69
2022/10/08 02:42:35;;;;;;;7.25;2.00;;;;;;;13.17;100.00;101590.44;5283673;28;20516;-69
2022/10/08 02:45:27;;;;;;;6.90;1.92;;;;;;;13.42;100.00;101586.63;5288380;28;20111;-73
2022/10/08 02:48:10;;;;;;;6.53;1.75;;;;;;;13.34;100.00;101594.34;5286710;28;20024;-68
2022/10/08 02:50:44;;;;;;;5.75;1.45;;;;;;;13.20;100.00;101595.47;5286661;28;20104;-70
2022/10/08 02:53:17;;;;;;;5.22;1.60;;;;;;;13.12;100.00;101590.84;5282851;28;20131;-70
2022/10/08 02:55:54;;;;;;;8.65;1.98;;;;;;;13.23;100.00;101583.84;5286207;28;20036;-72
2022/10/08 02:58:26;;;;;;;6.18;1.67;;;;;;;13.09;100.00;101582.38;5289005;28;20032;-70
2022/10/08 03:01:05;;;;;;;4.85;1.45;;;;;;;13.10;100.00;101581.41;5285144;28;20054;-70
2022/10/08 03:03:45;;;;;;;6.30;2.17;;;;;;;13.12;100.00;101585.56;5288156;28;20025;-69
2022/10/08 03:06:17;;;;;;;5.57;2.22;;;;;;;13.08;100.00;101583.34;5284269;28;20516;-69
2022/10/08 03:08:49;;;;;;;7.75;2.65;;;;;;;13.04;100.00;101584.56;5286771;28;20036;-69
2022/10/08 03:11:22;;;;;;;5.43;1.93;;;;;;;13.02;100.00;101595.19;5285073;28;20031;-70
2022/10/08 03:13:57;;;;;;;5.85;1.80;;;;;;;13.02;100.00;101592.56;5266936;28;21109;-69
2022/10/08 03:16:37;;;;;;;4.93;1.60;;;;;;;13.09;100.00;101600.78;5285503;28;20126;-70
2022/10/08 03:19:11;;;;;;;7.75;2.30;;;;;;;12.96;100.00;101592.25;5267825;28;20139;-70
2022/10/08 03:21:44;;;;;;;7.43;1.95;;;;;;;12.95;100.00;101603.72;5285154;28;20024;-69
2022/10/08 03:24:15;;;;;;;8.38;1.92;;;;;;;12.93;100.00;101603.03;5285260;28;20097;-70
2022/10/08 03:26:47;;;;;;;4.35;1.98;;;;;;;12.95;100.00;101607.19;5283330;28;20107;-70
2022/10/08 03:29:18;;;;;;;5.15;1.58;;;;;;;12.96;100.00;101608.03;5284281;28;20602;-70
2022/10/08 03:31:49;;;;;;;8.93;2.35;;;;;;;12.95;100.00;101615.06;5284951;28;20040;-70
2022/10/08 03:34:23;;;;;;;5.30;1.73;;;;;;;12.99;100.00;101619.13;5284647;28;20032;-70
2022/10/08 03:36:55;;;;;;;5.05;1.75;;;;;;;12.91;100.00;101617.13;5282298;28;20039;-70
2022/10/08 03:39:26;;;;;;;7.10;1.75;;;;;;;12.98;100.00;101621.88;5284162;28;20020;-70
2022/10/08 03:41:57;;;;;;;6.50;1.83;;;;;;;12.97;100.00;101622.84;5284244;28;20016;-70
2022/10/08 03:44:28;;;;;;;5.43;1.90;;;;;;;12.91;100.00;101614.47;5285627;28;20030;-70
2022/10/08 03:47:00;;;;;;;5.75;1.88;;;;;;;12.95;100.00;101627.38;5267995;28;20036;-69
2022/10/08 03:49:31;;;;;;;5.10;1.80;;;;;;;12.86;100.00;101626.38;5286378;28;20036;-70
2022/10/08 03:52:02;;;;;;;6.88;1.90;;;;;;;12.75;100.00;101621.97;5289600;28;20476;-70
2022/10/08 03:54:34;;;;;;;6.03;1.85;;;;;;;12.72;100.00;101629.28;5282483;28;20032;-70
2022/10/08 03:57:06;;;;;;;6.28;2.00;;;;;;;12.75;100.00;101629.03;5285137;28;20074;-69
2022/10/08 03:59:37;;;;;;;8.98;1.98;;;;;;;12.72;100.00;101624.84;5269190;28;20102;-70
2022/10/08 04:02:08;;;;;;;5.93;1.67;;;;;;;12.68;100.00;101636.56;5276764;28;20027;-71
2022/10/08 04:04:39;;;;;;;6.55;2.33;;;;;;;12.64;100.00;101628.09;5281797;28;20073;-70
2022/10/08 04:07:11;;;;;;;6.03;2.10;;;;;;;12.54;100.00;101629.81;5284361;28;20016;-70
2022/10/08 04:09:42;;;;;;;6.32;2.00;;;;;;;12.55;100.00;101641.16;5279438;28;20030;-70
2022/10/08 04:12:13;;;;;;;8.05;2.22;;;;;;;12.55;100.00;101638.53;5284157;28;20024;-71
2022/10/08 04:14:45;;;;;;;7.07;2.50;;;;;;;12.65;100.00;101639.44;5281611;28;20032;-70
2022/10/08 04:17:16;;;;;;;7.20;2.65;;;;;;;12.60;100.00;101644.25;5281536;28;20051;-70
2022/10/08 04:19:47;;;;;;;5.28;2.60;;;;;;;12.63;100.00;101646.63;5289481;28;20078;-70
2022/10/08 04:22:18;;;;;;;8.43;4.10;;;;;;;12.63;100.00;101641.38;5283370;28;20035;-70
2022/10/08 04:24:50;;;;;;;10.05;5.00;;;;;;;12.62;100.00;101643.19;5289144;28;20030;-71
2022/10/08 04:27:21;;;;;;;9.60;6.28;;;;;;;12.65;100.00;101648.19;5289352;28;20024;-70
2022/10/08 04:29:52;;;;;;;12.82;7.30;;;;;;;12.65;100.00;101634.19;5290422;28;20078;-69
2022/10/08 04:32:23;;;;;;;12.38;7.50;;;;;;;12.70;100.00;101650.44;5288936;28;20027;-70
2022/10/08 04:34:55;;;;;;;16.25;10.40;;;;;;;12.72;100.00;101655.56;5284588;28;20024;-70
2022/10/08 04:37:26;;;;;;;14.35;10.55;;;;;;;12.74;100.00;101661.56;5290654;28;20051;-70
2022/10/08 04:39:58;;;;;;;16.27;11.43;;;;;;;12.75;100.00;101663.22;5287147;28;20027;-70
2022/10/08 04:42:29;;;;;;;17.88;13.82;;;;;;;12.77;100.00;101667.41;5288997;28;20025;-71
2022/10/08 04:45:00;;;;;;;18.85;15.15;;;;;;;12.83;100.00;101669.50;5290613;28;20067;-70
2022/10/08 04:47:31;;;;;;;25.58;17.00;;;;;;;12.84;100.00;101668.56;5286237;28;20042;-70
2022/10/08 04:50:03;;;;;;;22.48;18.02;;;;;;;12.84;100.00;101665.94;5291809;28;20076;-71
2022/10/08 04:52:34;;;;;;;21.88;18.23;;;;;;;12.87;100.00;101673.56;5287401;28;20043;-71
2022/10/08 04:55:06;;;;;;;26.00;20.65;;;;;;;12.87;100.00;101678.81;5290524;28;20074;-70
2022/10/08 04:57:38;;;;;;;28.73;20.98;;;;;;;12.88;100.00;101680.50;5292362;28;20054;-70
2022/10/08 05:00:10;;;;;;;27.00;21.33;;;;;;;12.95;100.00;101696.59;5287243;28;20019;-70
2022/10/08 05:02:41;;;;;;;27.13;20.67;;;;;;;12.98;100.00;101682.38;5286760;28;20036;-71
2022/10/08 05:05:14;;;;;;;26.35;21.40;;;;;;;13.00;100.00;101689.19;5288805;28;20478;-70
2022/10/08 05:07:45;;;;;;;29.90;23.33;;;;;;;13.04;100.00;101702.94;5289296;28;20400;-71
2022/10/08 05:10:16;;;;;;;28.63;24.10;;;;;;;12.99;100.00;101686.66;5289969;28;20020;-70
2022/10/08 05:12:48;;;;;;;30.90;24.65;;;;;;;13.01;100.00;101697.91;5286425;28;20032;-70
2022/10/08 05:15:20;;;;;;;34.03;24.48;;;;;;;13.03;100.00;101703.88;5285157;28;20025;-70
2022/10/08 05:17:51;;;;;;;32.50;26.95;;;;;;;13.05;100.00;101704.59;5287410;28;20097;-70
2022/10/08 05:20:22;;;;;;;33.58;26.33;;;;;;;13.06;100.00;101703.63;5287953;28;20058;-70
2022/10/08 05:22:54;;;;;;;34.20;27.35;;;;;;;13.05;100.00;101708.06;5288325;28;20032;-71
2022/10/08 05:25:25;;;;;;;33.15;25.67;;;;;;;13.08;100.00;101705.19;5285856;28;20064;-70
2022/10/08 05:27:57;;;;;;;35.35;27.25;;;;;;;13.00;100.00;101710.25;5288086;28;20032;-71
2022/10/08 05:30:28;;;;;;;37.90;28.65;;;;;;;13.01;100.00;101716.34;5286206;28;20024;-71
2022/10/08 05:32:59;;;;;;;34.67;27.17;;;;;;;13.01;100.00;101711.06;5286960;28;20029;-71
2022/10/08 05:35:31;;;;;;;32.25;26.90;;;;;;;13.02;100.00;101710.09;5287925;28;20036;-71
2022/10/08 05:38:02;;;;;;;35.65;26.73;;;;;;;13.02;100.00;101710.09;5285156;28;20121;-71
2022/10/08 05:40:33;;;;;;;39.47;29.95;;;;;;;12.98;100.00;101719.19;5285105;28;20032;-71
2022/10/08 05:43:04;;;;;;;35.20;27.73;;;;;;;12.96;100.00;101729.88;5285180;28;20028;-71
2022/10/08 05:45:36;;;;;;;37.03;27.98;;;;;;;12.96;100.00;101729.03;5284315;28;20032;-71
2022/10/08 05:48:07;;;;;;;37.90;27.67;;;;;;;12.97;100.00;101728.91;5282754;28;20024;-71
2022/10/08 05:50:38;;;;;;;38.13;28.35;;;;;;;12.98;100.00;101735.00;5286013;28;20028;-71
2022/10/08 05:53:09;;;;;;;36.38;27.35;;;;;;;12.96;100.00;101735.13;5288953;28;20033;-71
2022/10/08 05:55:40;;;;;;;36.35;26.90;;;;;;;12.98;100.00;101742.88;5289429;28;20024;-71
2022/10/08 05:58:12;;;;;;;40.00;28.33;;;;;;;12.95;100.00;101741.31;5287132;28;20028;-71
2022/10/08 06:00:43;;;;;;;40.05;28.70;;;;;;;12.96;100.00;101748.28;5267522;28;20028;-71
2022/10/08 06:03:14;;;;;;;41.65;29.45;;;;;;;12.94;100.00;101755.44;5276316;28;20016;-71
2022/10/08 06:05:46;;;;;;;38.30;28.27;;;;;;;12.89;100.00;101758.44;5286906;28;20078;-71
2022/10/08 06:08:17;;;;;;;40.72;28.48;;;;;;;12.90;100.00;101754.00;5288854;28;20016;-71
2022/10/08 06:10:52;;;;;;;37.35;27.15;;;;;;;12.93;100.00;101768.72;5283424;28;20035;-70
2022/10/08 06:13:25;;;;;;;38.40;29.73;;;;;;;12.80;100.00;101774.94;5278761;28;20166;-70
2022/10/08 06:15:58;;;;;;;40.03;28.48;;;;;;;12.83;100.00;101766.81;5285390;28;20424;-71
2022/10/08 06:18:32;;;;;;;37.80;27.75;;;;;;;12.82;100.00;101774.84;5267707;22;20048;-75
2022/10/08 06:21:09;;;;;;;38.10;26.80;;;;;;;12.81;100.00;101776.63;5237049;28;20037;-75
2022/10/08 06:23:46;;;;;;;40.90;28.65;;;;;;;12.88;100.00;101782.25;5243877;28;20033;-75
2022/10/08 06:26:20;;;;;;;37.60;27.33;;;;;;;12.74;100.00;101783.34;5243017;28;20108;-75
2022/10/08 06:28:52;;;;;;;37.45;29.08;;;;;;;12.74;100.00;101788.59;5246312;28;20028;-75
2022/10/08 06:31:24;;;;;;;37.67;27.33;;;;;;;12.70;100.00;101784.53;5228828;28;20029;-74
2022/10/08 06:33:57;;;;;;;36.28;27.77;;;;;;;12.66;100.00;101783.09;5240690;28;20441;-75
2022/10/08 06:36:28;;;;;;;41.25;28.65;;;;;;;12.70;100.00;101796.84;5240797;28;20026;-75
2022/10/08 06:39:04;;;;;;;42.85;26.92;;;;;;;12.77;100.00;101803.31;5242176;28;20074;-75
2022/10/08 06:41:36;;;;;;;33.70;25.98;;;;;;;12.66;100.00;101804.97;5243363;28;20029;-76
2022/10/08 06:44:11;;;;;;;30.83;24.88;;;;;;;12.74;100.00;101819.31;5247099;28;20079;-76
2022/10/08 06:46:42;;;;;;;35.28;25.05;;;;;;;12.72;100.00;101824.66;5246465;28;20025;-75
2022/10/08 06:49:13;;;;;;;32.13;25.13;;;;;;;12.77;100.00;101830.44;5242004;28;20079;-75
2022/10/08 06:51:44;;;;;;;33.45;25.15;;;;;;;12.84;100.00;101836.88;5241460;28;20525;-75
2022/10/08 06:54:16;;;;;;;35.83;24.33;;;;;;;12.84;100.00;101836.88;5242903;28;20060;-75
2022/10/08 06:56:47;;;;;;;31.83;24.02;;;;;;;12.84;100.00;101834.25;5242141;28;20033;-75
2022/10/08 06:59:18;;;;;;;32.10;23.90;;;;;;;12.90;100.00;101846.91;5239322;28;20025;-75
2022/10/08 07:01:50;;;;;;;30.13;23.02;;;;;;;12.96;100.00;101860.53;5243248;28;20125;-75
2022/10/08 07:04:21;;;;;;;28.10;21.77;;;;;;;12.96;100.00;101860.53;5243312;28;20021;-75
2022/10/08 07:06:52;;;;;;;27.13;21.42;;;;;;;13.04;100.00;101866.88;5242104;28;20028;-75
2022/10/08 07:09:24;;;;;;;26.10;18.73;;;;;;;13.03;100.00;101874.88;5244291;28;20032;-75
2022/10/08 07:11:55;;;;;;;29.70;18.88;;;;;;;13.03;100.00;101878.34;5244108;28;20025;-75
2022/10/08 07:14:26;;;;;;;28.80;18.65;;;;;;;13.04;100.00;101884.44;5245347;28;20074;-75
2022/10/08 07:16:57;;;;;;;21.10;16.60;;;;;;;13.02;100.00;101878.47;5244909;28;20048;-75
2022/10/08 07:19:29;;;;;;;24.33;16.60;;;;;;;13.03;100.00;101882.75;5244270;28;20098;-75
2022/10/08 07:22:00;;;;;;;22.60;16.10;;;;;;;13.02;100.00;101887.19;5241572;28;20032;-76
2022/10/08 07:24:31;;;;;;;22.45;14.98;;;;;;;13.01;100.00;101889.94;5239518;28;20083;-75
2022/10/08 07:27:02;;;;;;;20.30;14.20;;;;;;;13.04;100.00;101889.72;5245331;28;20437;-75
2022/10/08 07:29:34;;;;;;;20.00;14.23;;;;;;;13.04;100.00;101887.91;5242177;28;20036;-76
2022/10/08 07:32:05;;;;;;;20.17;12.88;;;;;;;13.05;100.00;101896.63;5244159;28;20040;-75
2022/10/08 07:34:36;;;;;;;19.13;12.80;;;;;;;13.08;100.00;101902.50;5244691;28;20123;-75
2022/10/08 07:37:08;;;;;;;18.88;12.18;;;;;;;13.10;100.00;101905.00;5246397;28;20021;-76
2022/10/08 07:39:39;;;;;;;19.63;11.90;;;;;;;13.13;100.00;101910.03;5242144;28;20021;-75
2022/10/08 07:42:10;;;;;;;18.08;11.05;;;;;;;13.14;100.00;101906.44;5246261;28;20040;-75
2022/10/08 07:44:41;;;;;;;14.23;9.27;;;;;;;13.12;100.00;101909.19;5245105;28;20022;-75
2022/10/08 07:47:13;;;;;;;16.23;9.65;;;;;;;13.20;100.00;101918.28;5246146;28;20026;-75
2022/10/08 07:49:44;;;;;;;16.52;8.77;;;;;;;13.23;100.00;101924.16;5224429;28;20025;-75
2022/10/08 07:52:15;;;;;;;14.50;7.95;;;;;;;13.25;100.00;101924.88;5244114;28;20121;-75
2022/10/08 07:54:46;;;;;;;11.20;7.93;;;;;;;13.30;100.00;101924.53;5249445;28;20044;-75
2022/10/08 07:57:17;;;;;;;12.95;7.10;;;;;;;13.31;100.00;101927.03;5245148;28;20108;-75
2022/10/08 07:59:49;;;;;;;10.35;6.43;;;;;;;13.31;100.00;101929.66;5248440;28;20033;-75
2022/10/08 08:02:20;;;;;;;11.85;5.57;;;;;;;13.34;100.00;101926.78;5244624;28;20389;-75
2022/10/08 08:04:51;;;;;;;12.68;5.65;;;;;;;13.38;100.00;101933.47;5247641;28;20076;-75
2022/10/08 08:07:23;;;;;;;9.48;4.05;;;;;;;13.42;100.00;101941.16;5249034;28;20052;-76
2022/10/08 08:09:54;;;;;;;9.68;4.25;;;;;;;13.50;100.00;101944.00;5249263;28;20044;-76
2022/10/08 08:12:25;;;;;;;8.38;4.10;;;;;;;13.52;100.00;101940.25;5249724;28;20017;-75
2022/10/08 08:14:56;;;;;;;16.40;4.70;;;;;;;13.49;100.00;101931.81;5241050;28;20041;-75
2022/10/08 08:17:28;;;;;;;12.48;4.60;;;;;;;13.57;100.00;101953.09;5243875;28;20094;-76
2022/10/08 08:19:59;;;;;;;12.23;3.85;;;;;;;13.62;100.00;101958.81;5249478;28;20119;-75
2022/10/08 08:22:30;;;;;;;11.05;4.20;;;;;;;13.67;100.00;101971.59;5248234;28;20033;-75
2022/10/08 08:25:02;;;;;;;13.48;4.15;;;;;;;13.71;100.00;101962.50;5243103;28;20021;-75
2022/10/08 08:27:33;;;;;;;8.35;4.10;;;;;;;13.73;100.00;101961.41;5249029;28;20026;-76
2022/10/08 08:30:05;;;;;;;12.52;3.92;;;;;;;13.77;100.00;101969.91;5249288;28;20029;-75
2022/10/08 08:32:36;;;;;;;16.80;4.22;;;;;;;13.82;100.00;101984.38;5243298;28;20025;-75
2022/10/08 08:35:07;;;;;;;8.88;3.97;;;;;;;13.87;100.00;101982.22;5245543;28;20037;-75
2022/10/08 08:37:39;;;;;;;8.75;3.63;;;;;;;13.93;100.00;101982.69;5245417;28;20029;-75
2022/10/08 08:40:10;;;;;;;9.98;3.58;;;;;;;14.02;100.00;101984.59;5237950;28;20369;-76
2022/10/08 08:42:43;;;;;;;14.13;3.88;;;;;;;13.91;100.00;101961.75;5243617;28;20090;-77
2022/10/08 08:45:26;;;;;;;9.25;3.30;;;;;;;14.26;100.00;101998.38;5247302;28;20060;-76
2022/10/08 08:48:04;;;;;;;8.82;3.10;;;;;;;14.24;100.00;102002.09;5240830;28;20040;-76
2022/10/08 08:50:39;;;;;;;7.80;2.67;;;;;;;14.26;100.00;102005.47;5245134;28;20116;-75
2022/10/08 08:53:10;;;;;;;10.90;2.20;;;;;;;14.27;100.00;102000.06;5238943;28;20024;-75
2022/10/08 08:55:45;;;;;;;7.78;2.50;;;;;;;14.44;100.00;102000.47;5247075;28;20029;-75
2022/10/08 08:58:43;;;;;;;9.23;2.55;;;;;;;14.58;100.00;102008.94;5243222;28;20089;-75
2022/10/08 09:01:17;;;;;;;8.68;2.22;;;;;;;14.49;100.00;102020.25;5240763;28;20055;-75
2022/10/08 09:03:51;;;;;;;11.80;1.98;;;;;;;14.65;100.00;102021.63;5241011;28;20088;-75
2022/10/08 09:06:24;;;;;;;7.05;2.05;;;;;;;14.66;100.00;102007.44;5239103;28;20037;-75
2022/10/08 09:09:11;;;;;;;;;;;;;;;15.21;100.00;102008.91;5241048;28;20021;-75
2022/10/08 09:11:43;;;;;;;8.10;2.13;;;;;;;14.86;100.00;102016.34;5239992;28;20039;-75
2022/10/08 09:14:33;;;;;;;6.30;1.60;;;;;;;14.87;100.00;102018.84;5241023;28;20062;-75
2022/10/08 09:17:14;;;;;;;7.53;1.33;;;;;;;14.98;100.00;102026.69;5245953;28;20069;-76
2022/10/08 09:19:47;;;;;;;6.05;1.30;;;;;;;14.85;100.00;102026.06;5240202;28;20025;-77
2022/10/08 09:22:20;;;;;;;;;;;;;;;15.39;100.00;102034.69;5241511;28;20031;-75
2022/10/08 09:24:58;;;;;;;6.55;1.30;;;;;;;14.96;100.00;102028.63;5240241;28;19970;-74
2022/10/08 09:27:46;;;;;;;9.02;1.75;;;;;;;15.19;100.00;102042.53;5246436;28;20031;-75
2022/10/08 09:30:23;;;;;;;6.35;1.33;;;;;;;15.28;100.00;102039.09;5240798;28;20033;-75
2022/10/08 09:32:57;;;;;;;5.45;1.27;;;;;;;15.22;100.00;102039.59;5239023;28;20025;-75
2022/10/08 09:35:32;;;;;;;8.70;1.60;;;;;;;15.12;100.00;102056.38;5245907;28;20025;-75
2022/10/08 09:38:03;;;;;;;9.00;1.98;;;;;;;15.20;100.00;102053.91;5243551;28;20115;-76
2022/10/08 09:40:34;;;;;;;8.10;1.67;;;;;;;15.36;100.00;102059.56;5244909;28;20075;-74
2022/10/08 09:43:10;;;;;;;4.97;1.33;;;;;;;15.59;100.00;102060.22;5248193;28;20024;-75
2022/10/08 09:45:43;;;;;;;7.57;1.13;;;;;;;15.81;100.00;102053.91;5229720;28;20022;-74
2022/10/08 09:48:14;;;;;;;6.93;1.70;;;;;;;15.82;100.00;102060.88;5245674;28;20021;-74
2022/10/08 09:51:09;;;;;;;5.80;1.60;;;;;;;16.04;100.00;102057.19;5245136;28;20036;-74
2022/10/08 09:53:47;;;;;;;7.45;1.77;;;;;;;16.05;100.00;102067.59;5242543;28;20425;-74
2022/10/08 09:56:26;;;;;;;5.00;1.30;;;;;;;16.16;100.00;102077.22;5242194;28;20502;-75
2022/10/08 09:59:03;;;;;;;6.38;1.42;;;;;;;16.20;100.00;102080.44;5244221;28;20803;-74
2022/10/08 10:01:44;;;;;;;9.98;1.83;;;;;;;16.22;100.00;102067.94;5242500;28;20071;-75
2022/10/08 10:04:27;;;;;;;6.00;1.55;;;;;;;16.33;100.00;102085.47;5247470;28;20021;-74
2022/10/08 10:06:59;;;;;;;;;;;;;;;16.74;100.00;102084.38;5241439;28;20037;-74
2022/10/08 10:09:45;;;;;;;5.67;1.30;;;;;;;16.42;100.00;102082.00;5242025;28;20400;-74
2022/10/08 10:12:26;;;;;;;5.35;1.40;;;;;;;16.22;100.00;102087.28;5240594;28;20375;-74
2022/10/08 10:15:02;;;;;;;3.95;1.20;;;;;;;16.29;100.00;102083.09;5244545;28;20238;-74
2022/10/08 10:17:55;;;;;;;5.78;1.30;;;;;;;16.67;100.00;102080.63;5242518;28;20478;-74
2022/10/08 10:20:32;;;;;;;7.03;1.60;;;;;;;16.72;100.00;102081.88;5239067;28;20118;-76
2022/10/08 10:23:14;;;;;;;6.63;1.35;;;;;;;16.86;100.00;102083.28;5242358;28;20044;-77
2022/10/08 10:25:50;;;;;;;6.00;1.13;;;;;;;16.93;100.00;102083.53;5240062;28;20064;-78
2022/10/08 10:28:33;;;;;;;8.40;1.60;;;;;;;17.13;100.00;102085.19;5241289;28;20059;-75
2022/10/08 10:31:23;;;;;;;3.50;1.17;;;;;;;16.88;100.00;102089.25;5241605;28;20720;-76
2022/10/08 10:34:08;;;;;;;4.38;1.20;;;;;;;16.82;100.00;102103.09;5242106;28;20115;-75
2022/10/08 10:37:05;;;;;;;10.50;1.60;;;;;;;16.90;100.00;102094.44;5242973;28;20040;-75
2022/10/08 10:39:36;;;;;;;5.25;1.20;;;;;;;16.94;100.00;102101.94;5222499;28;20029;-79
2022/10/08 10:42:34;;;;;;;3.97;1.10;;;;;;;17.17;100.00;102088.41;5241276;28;20021;-76
2022/10/08 10:45:19;;;;;;;6.00;0.95;;;;;;;17.48;100.00;102097.78;5249361;28;20466;-75
2022/10/08 10:47:52;;;;;;;8.45;1.85;;;;;;;17.38;100.00;102093.47;5241388;28;20112;-73
2022/10/08 10:50:35;;;;;;;;;;;;;;;18.08;100.00;102105.34;5244151;28;20044;-75
2022/10/08 10:53:18;;;;;;;4.82;1.13;;;;;;;17.66;100.00;102094.38;5246238;28;20436;-76
2022/10/08 10:56:02;;;;;;;6.20;1.15;;;;;;;17.84;100.00;102097.09;5245188;28;20397;-73
2022/10/08 10:58:55;;;;;;;6.43;1.23;;;;;;;17.98;100.00;102108.03;5243521;28;20094;-77
2022/10/08 11:01:41;;;;;;;7.43;1.40;;;;;;;18.12;100.00;102097.94;5237300;28;20075;-73
2022/10/08 11:04:36;;;;;;;4.72;1.35;;;;;;;18.11;100.00;102101.59;5238064;28;21015;-74
2022/10/08 11:07:39;;;;;;;4.47;1.13;;;;;;;18.21;100.00;102100.50;5241032;28;20403;-73
2022/10/08 11:10:31;;;;;;;5.20;0.93;;;;;;;18.15;100.00;102117.03;5244795;28;20044;-73
2022/10/08 11:13:25;;;;;;;4.35;1.30;;;;;;;18.15;100.00;102110.91;5242216;28;20087;-75
2022/10/08 11:16:18;;;;;;;6.13;1.40;;;;;;;18.08;100.00;102115.13;5246857;28;20029;-76
2022/10/08 11:18:59;;;;;;;7.53;1.48;;;;;;;17.88;100.00;102114.38;5245294;28;20094;-73
2022/10/08 11:21:51;;;;;;;6.13;1.48;;;;;;;17.92;100.00;102110.47;5239289;28;20025;-75
2022/10/08 11:24:40;;;;;;;2.92;1.10;;;;;;;17.59;100.00;102120.63;5242164;28;20124;-73
2022/10/08 11:27:31;;;;;;;5.22;1.35;;;;;;;17.36;100.00;102117.47;5244767;28;20025;-77
2022/10/08 11:30:13;;;;;;;4.68;1.38;;;;;;;17.19;100.00;102121.69;5245601;28;20059;-77
2022/10/08 11:32:52;;;;;;;5.32;1.05;;;;;;;16.92;100.00;102118.94;5249338;28;20083;-73
2022/10/08 11:35:32;;;;;;;6.95;1.50;;;;;;;16.71;100.00;102132.28;5246624;28;20025;-73
2022/10/08 11:38:16;;;;;;;7.43;1.80;;;;;;;16.44;100.00;102131.16;5242608;28;20078;-74
2022/10/08 11:41:09;;;;;;;7.15;1.40;;;;;;;16.59;100.00;102130.72;5251583;28;20457;-74
2022/10/08 11:43:57;;;;;;;4.72;0.90;;;;;;;16.96;100.00;102125.63;5245263;28;21961;-74
2022/10/08 11:46:31;;;;;;;4.70;1.00;;;;;;;17.02;100.00;102119.78;5245778;28;20030;-73
2022/10/08 11:49:15;;;;;;;4.93;1.23;;;;;;;17.56;100.00;102128.00;5247118;28;20029;-73
2022/10/08 11:51:51;;;;;;;6.07;1.30;;;;;;;17.30;100.00;102127.81;5242768;28;20036;-77